LEZL/SVQ METAR and TAF weather

Enter ICAO airport designator
Station Type Date Time Source
LEZL METAR 2024/06/14 21:30 UTC NOAA

LEZL 142130Z 21007KT 170V240 CAVOK 24/10 Q1014 NOSIG


Station Type Date Time Source
LEZL Decoded METAR 2024/06/14 21:30 UTC NOAA

Sevilla / San Pablo, Spain (LEZL) 37-25N 005-54W 31M
Jun 14, 2024 - 05:30 PM EDT / 2024.06.14 2130 UTC
Wind: from the SSW (210 degrees) at 8 MPH (7 KT) (direction variable):0
Visibility: greater than 7 mile(s):0
Temperature: 75 F (24 C)
Dew Point: 50 F (10 C)
Relative Humidity: 41%
Pressure (altimeter): 29.94 in. Hg (1014 hPa)
ob: LEZL 142130Z 21007KT 170V240 CAVOK 24/10 Q1014 NOSIG
cycle: 21

Station Type Date Time Source
LEZL TAF 2024/06/14 21:27 UTC NOAA